createdAt,value
2024-02-24T00:01:10.001Z,33.82
2024-02-24T00:03:39.649Z,34.04
2024-02-24T00:06:07.808Z,34.28
2024-02-24T00:08:36.030Z,34.45
2024-02-24T00:11:04.208Z,34.08
2024-02-24T00:13:32.512Z,34.27
2024-02-24T00:16:00.805Z,34.47
2024-02-24T00:18:30.359Z,34.24
2024-02-24T00:20:58.332Z,34.17
2024-02-24T00:23:26.315Z,34.12
2024-02-24T00:25:54.294Z,34.13
2024-02-24T00:28:22.227Z,34.08
2024-02-24T00:30:50.232Z,34.45
2024-02-24T00:33:18.649Z,34.38
2024-02-24T00:35:48.251Z,33.92
2024-02-24T00:38:16.323Z,34.31
2024-02-24T00:40:46.718Z,34.34
2024-02-24T00:43:14.983Z,34.00
2024-02-24T00:45:43.070Z,34.22
2024-02-24T00:48:11.163Z,34.25
2024-02-24T00:50:39.203Z,34.16
2024-02-24T00:53:08.944Z,34.49
2024-02-24T00:55:36.990Z,34.24
2024-02-24T00:58:05.283Z,33.95
2024-02-24T01:00:33.253Z,34.12
2024-02-24T01:03:01.526Z,34.59
2024-02-24T01:05:29.773Z,34.02
2024-02-24T01:07:58.206Z,33.96
2024-02-24T01:10:27.732Z,34.06
2024-02-24T01:12:55.772Z,34.28
2024-02-24T01:15:25.670Z,34.14
2024-02-24T01:17:56.778Z,34.37
2024-02-24T01:20:26.037Z,34.11
2024-02-24T01:22:55.376Z,34.33
2024-02-24T01:25:23.484Z,33.91
2024-02-24T01:27:52.853Z,34.29
2024-02-24T01:30:20.776Z,33.91
2024-02-24T01:32:49.082Z,33.96
2024-02-24T01:35:17.748Z,34.38
2024-02-24T01:37:45.692Z,33.96
2024-02-24T01:40:14.174Z,34.33
2024-02-24T01:42:43.891Z,34.27
2024-02-24T01:45:15.486Z,34.25
2024-02-24T01:47:43.736Z,33.97
2024-02-24T01:50:12.411Z,34.31
2024-02-24T01:52:40.711Z,34.21
2024-02-24T01:55:10.082Z,34.28
2024-02-24T01:57:42.648Z,34.07
2024-02-24T02:00:15.713Z,34.11
2024-02-24T02:02:43.897Z,34.29
2024-02-24T02:05:12.194Z,33.92
2024-02-24T02:07:40.152Z,34.46
2024-02-24T02:10:08.816Z,34.36
2024-02-24T02:12:37.334Z,34.41
2024-02-24T02:15:14.451Z,34.35
2024-02-24T02:17:43.972Z,34.37
2024-02-24T02:20:12.085Z,34.30
2024-02-24T02:22:41.918Z,33.80
2024-02-24T02:25:12.210Z,33.93
2024-02-24T02:27:40.186Z,33.86
2024-02-24T02:30:11.126Z,34.35
2024-02-24T02:32:39.244Z,34.25
2024-02-24T02:35:10.846Z,34.20
2024-02-24T02:37:38.991Z,34.21
2024-02-24T02:40:11.265Z,33.92
2024-02-24T02:42:39.281Z,34.44
2024-02-24T02:45:10.591Z,34.23
2024-02-24T02:47:39.429Z,33.82
2024-02-24T02:50:08.382Z,34.31
2024-02-24T02:52:36.727Z,34.01
2024-02-24T02:55:05.267Z,34.30
2024-02-24T02:57:34.601Z,34.47
2024-02-24T03:00:02.751Z,33.85
2024-02-24T03:02:30.742Z,34.12
2024-02-24T03:05:00.475Z,34.30
2024-02-24T03:07:29.763Z,34.12
2024-02-24T03:09:58.152Z,34.21
2024-02-24T03:12:26.273Z,34.01
2024-02-24T03:14:57.022Z,33.99
2024-02-24T03:17:25.010Z,34.12
2024-02-24T03:19:52.951Z,33.93
2024-02-24T03:22:20.923Z,34.06
2024-02-24T03:24:49.162Z,34.43
2024-02-24T03:27:17.217Z,34.21
2024-02-24T03:29:45.309Z,34.06
2024-02-24T03:32:14.704Z,34.36
2024-02-24T03:34:42.973Z,34.15
2024-02-24T03:37:10.997Z,34.18
2024-02-24T03:39:39.295Z,34.24
2024-02-24T03:42:07.336Z,34.31
2024-02-24T03:44:35.413Z,34.31
2024-02-24T03:47:03.606Z,34.12
2024-02-24T03:49:32.984Z,34.27
2024-02-24T03:52:01.029Z,34.30
2024-02-24T03:54:29.287Z,33.85
2024-02-24T03:56:57.324Z,33.91
2024-02-24T03:59:25.409Z,33.71
2024-02-24T04:01:53.401Z,34.29
2024-02-24T04:04:21.735Z,34.20
2024-02-24T04:06:51.263Z,33.89
2024-02-24T04:09:19.264Z,34.21
2024-02-24T04:11:49.811Z,33.80
2024-02-24T04:14:18.267Z,34.30
2024-02-24T04:16:46.269Z,33.82
2024-02-24T04:19:14.250Z,33.74
2024-02-24T04:21:42.258Z,34.30
2024-02-24T04:24:11.656Z,34.16
2024-02-24T04:26:39.643Z,33.96
2024-02-24T04:29:07.746Z,33.80
2024-02-24T04:31:35.731Z,33.83
2024-02-24T04:34:04.073Z,33.95
2024-02-24T04:36:32.259Z,33.89
2024-02-24T04:39:00.269Z,34.05
2024-02-24T04:41:29.711Z,33.97
2024-02-24T04:43:57.979Z,34.19
2024-02-24T04:46:25.953Z,33.72
2024-02-24T04:48:54.089Z,33.86
2024-02-24T04:51:22.861Z,34.19
2024-02-24T04:53:51.189Z,33.71
2024-02-24T04:56:19.215Z,33.89
2024-02-24T04:58:48.658Z,34.04
2024-02-24T05:01:18.193Z,33.81
2024-02-24T05:03:46.540Z,33.80
2024-02-24T05:06:14.654Z,34.11
2024-02-24T05:08:45.005Z,33.75
2024-02-24T05:11:13.189Z,33.65
2024-02-24T05:13:41.817Z,33.56
2024-02-24T05:16:11.886Z,33.62
2024-02-24T05:18:39.995Z,34.16
2024-02-24T05:21:08.039Z,34.10
2024-02-24T05:23:36.254Z,34.06
2024-02-24T05:26:04.365Z,34.14
2024-02-24T05:28:32.365Z,34.04
2024-02-24T05:31:00.349Z,34.08
2024-02-24T05:33:30.216Z,34.18
2024-02-24T05:35:58.328Z,33.85
2024-02-24T05:38:26.324Z,33.68
2024-02-24T05:40:54.327Z,33.55
2024-02-24T05:43:23.166Z,34.00
2024-02-24T05:45:51.125Z,34.04
2024-02-24T05:48:19.210Z,33.62
2024-02-24T05:50:50.132Z,34.11
2024-02-24T05:53:18.425Z,33.79
2024-02-24T05:55:47.760Z,33.47
2024-02-24T05:58:15.689Z,33.50
2024-02-24T06:00:43.685Z,34.03
2024-02-24T06:03:13.351Z,33.78
2024-02-24T06:05:41.442Z,34.17
2024-02-24T06:08:10.875Z,33.58
2024-02-24T06:10:39.185Z,33.84
2024-02-24T06:13:08.578Z,33.76
2024-02-24T06:15:36.565Z,33.80
2024-02-24T06:18:04.942Z,33.59
2024-02-24T06:20:33.042Z,33.89
2024-02-24T06:23:01.013Z,33.55
2024-02-24T06:25:31.509Z,33.45
2024-02-24T06:27:59.672Z,33.96
2024-02-24T06:30:27.709Z,33.78
2024-02-24T06:32:55.807Z,33.77
2024-02-24T06:35:24.235Z,34.03
2024-02-24T06:37:52.205Z,33.97
2024-02-24T06:40:29.206Z,34.00
2024-02-24T06:43:02.627Z,33.89
2024-02-24T06:45:30.600Z,33.72
2024-02-24T06:47:58.652Z,33.99
2024-02-24T06:50:26.715Z,33.92
2024-02-24T06:52:54.637Z,34.02
2024-02-24T06:55:23.941Z,33.68
2024-02-24T06:57:51.966Z,33.66
2024-02-24T07:00:22.353Z,33.54
2024-02-24T07:02:51.484Z,33.58
2024-02-24T07:05:19.986Z,33.93
2024-02-24T07:07:48.012Z,33.84
2024-02-24T07:10:16.088Z,34.04
2024-02-24T07:12:44.434Z,33.62
2024-02-24T07:15:13.818Z,33.60
2024-02-24T07:17:43.357Z,33.51
2024-02-24T07:20:12.909Z,33.73
2024-02-24T07:22:43.006Z,33.90
2024-02-24T07:25:11.084Z,34.01
2024-02-24T07:27:39.095Z,33.74
2024-02-24T07:30:15.185Z,33.57
2024-02-24T07:32:46.840Z,33.54
2024-02-24T07:35:16.204Z,33.62
2024-02-24T07:37:44.228Z,33.75
2024-02-24T07:40:13.235Z,33.68
2024-02-24T07:42:41.144Z,33.79
2024-02-24T07:45:12.411Z,33.95
2024-02-24T07:47:40.410Z,34.02
2024-02-24T07:50:10.948Z,33.91
2024-02-24T07:52:39.330Z,33.98
2024-02-24T07:55:08.571Z,33.69
2024-02-24T07:57:36.645Z,33.63
2024-02-24T08:00:06.008Z,33.65
2024-02-24T08:02:34.231Z,33.45
2024-02-24T08:05:02.553Z,33.30
2024-02-24T08:07:31.916Z,33.94
2024-02-24T08:09:59.857Z,33.92
2024-02-24T08:12:28.093Z,33.96
2024-02-24T08:14:56.666Z,33.61
2024-02-24T08:17:24.739Z,33.68
2024-02-24T08:19:52.661Z,33.94
2024-02-24T08:22:20.598Z,33.83
2024-02-24T08:24:49.934Z,33.39
2024-02-24T08:27:17.882Z,33.38
2024-02-24T08:29:45.921Z,34.01
2024-02-24T08:32:13.955Z,33.73
2024-02-24T08:34:42.535Z,33.61
2024-02-24T08:37:10.568Z,34.02
2024-02-24T08:39:38.529Z,33.86
2024-02-24T08:42:08.306Z,33.75
2024-02-24T08:44:36.633Z,33.52
2024-02-24T08:47:04.827Z,33.98
2024-02-24T08:49:32.812Z,33.66
2024-02-24T08:52:00.831Z,33.52
2024-02-24T08:54:29.101Z,33.80
2024-02-24T08:56:57.191Z,33.48
2024-02-24T08:59:26.731Z,33.79
2024-02-24T09:01:55.260Z,33.66
2024-02-24T09:04:23.493Z,33.62
2024-02-24T09:06:51.571Z,33.49
2024-02-24T09:09:19.598Z,33.47
2024-02-24T09:11:48.745Z,33.78
2024-02-24T09:14:17.228Z,33.77
2024-02-24T09:16:46.605Z,33.73
2024-02-24T09:19:14.609Z,33.95
2024-02-24T09:21:45.936Z,33.56
2024-02-24T09:24:13.916Z,33.69
2024-02-24T09:26:41.929Z,33.79
2024-02-24T09:29:10.020Z,33.97
2024-02-24T09:31:38.797Z,33.83
2024-02-24T09:34:10.985Z,33.96
2024-02-24T09:36:40.552Z,33.58
2024-02-24T09:39:08.529Z,33.49
2024-02-24T09:41:36.619Z,33.74
2024-02-24T09:44:06.399Z,33.70
2024-02-24T09:46:37.426Z,33.79
2024-02-24T09:49:06.000Z,33.75
2024-02-24T09:51:36.494Z,34.06
2024-02-24T09:54:05.104Z,33.86
2024-02-24T09:56:33.157Z,33.95
2024-02-24T09:59:01.227Z,33.54
2024-02-24T10:01:29.253Z,33.96
2024-02-24T10:03:57.645Z,34.05
2024-02-24T10:06:25.810Z,33.78
2024-02-24T10:08:55.332Z,33.50
2024-02-24T10:11:23.506Z,33.96
2024-02-24T10:13:51.868Z,33.90
2024-02-24T10:16:20.878Z,33.65
2024-02-24T10:18:48.986Z,34.13
2024-02-24T10:21:17.019Z,33.75
2024-02-24T10:23:45.050Z,34.12
2024-02-24T10:26:15.599Z,33.55
2024-02-24T10:28:43.654Z,33.79
2024-02-24T10:31:11.610Z,33.77
2024-02-24T10:33:40.121Z,34.10
2024-02-24T10:36:09.613Z,34.06
2024-02-24T10:38:42.246Z,33.66
2024-02-24T10:41:15.049Z,34.19
2024-02-24T10:43:43.372Z,34.05
2024-02-24T10:46:11.329Z,33.58
2024-02-24T10:48:39.520Z,33.99
2024-02-24T10:51:07.672Z,33.48
2024-02-24T10:53:36.111Z,33.97
2024-02-24T10:56:04.146Z,33.90
2024-02-24T10:58:36.260Z,34.03
2024-02-24T11:01:05.623Z,33.67
2024-02-24T11:03:33.967Z,33.70
2024-02-24T11:06:03.335Z,34.13
2024-02-24T11:08:38.546Z,33.97
2024-02-24T11:11:07.422Z,33.60
2024-02-24T11:13:37.115Z,34.04
2024-02-24T11:16:06.718Z,33.80
2024-02-24T11:18:55.783Z,33.96
2024-02-24T11:21:27.065Z,33.58
2024-02-24T11:23:56.230Z,33.93
2024-02-24T11:26:29.670Z,34.01
2024-02-24T11:29:09.312Z,33.69
2024-02-24T11:31:37.963Z,33.82
2024-02-24T11:34:09.160Z,33.44
2024-02-24T11:36:39.461Z,33.54
2024-02-24T11:39:09.813Z,33.92
2024-02-24T11:41:38.030Z,33.84
2024-02-24T11:44:09.177Z,33.47
2024-02-24T11:46:37.955Z,33.44
2024-02-24T11:49:06.463Z,33.90
2024-02-24T11:51:34.660Z,33.64
2024-02-24T11:54:04.909Z,33.90
2024-02-24T11:56:33.967Z,33.84
2024-02-24T11:59:02.773Z,33.92
2024-02-24T12:01:32.129Z,33.76
2024-02-24T12:04:00.762Z,33.60
2024-02-24T12:06:29.041Z,33.44
2024-02-24T12:08:57.092Z,33.82
2024-02-24T12:11:25.566Z,33.62
2024-02-24T12:13:53.919Z,33.89
2024-02-24T12:16:21.884Z,33.43
2024-02-24T12:18:51.471Z,33.42
2024-02-24T12:21:19.943Z,33.85
2024-02-24T12:23:48.098Z,33.55
2024-02-24T12:26:16.720Z,33.77
2024-02-24T12:28:46.592Z,33.82
2024-02-24T12:31:15.073Z,33.58
2024-02-24T12:33:44.565Z,33.79
2024-02-24T12:36:14.837Z,33.83
2024-02-24T12:38:43.359Z,33.30
2024-02-24T12:41:12.137Z,33.24
2024-02-24T12:43:40.803Z,33.82
2024-02-24T12:46:08.935Z,33.47
2024-02-24T12:48:40.872Z,33.33
2024-02-24T12:51:10.794Z,33.51
2024-02-24T12:53:40.520Z,33.73
2024-02-24T12:56:09.211Z,33.29
2024-02-24T12:58:39.692Z,33.89
2024-02-24T13:01:09.694Z,33.52
2024-02-24T13:03:39.268Z,33.47
2024-02-24T13:06:07.618Z,33.40
2024-02-24T13:08:36.014Z,33.37
2024-02-24T13:11:05.853Z,33.61
2024-02-24T13:13:34.192Z,33.47
2024-02-24T13:16:02.254Z,33.31
2024-02-24T13:18:30.405Z,33.59
2024-02-24T13:20:58.697Z,33.57
2024-02-24T13:23:26.791Z,33.57
2024-02-24T13:25:54.805Z,33.59
2024-02-24T13:28:24.292Z,33.28
2024-02-24T13:30:52.258Z,33.28
2024-02-24T13:33:20.714Z,33.63
2024-02-24T13:35:48.914Z,33.86
2024-02-24T13:38:17.833Z,33.87
2024-02-24T13:40:45.810Z,33.78
2024-02-24T13:43:14.065Z,34.13
2024-02-24T13:45:43.960Z,33.69
2024-02-24T13:48:12.096Z,33.84
2024-02-24T13:50:40.522Z,33.88
2024-02-24T13:53:10.253Z,33.88
2024-02-24T13:55:40.503Z,34.00
2024-02-24T13:58:08.461Z,33.86
2024-02-24T14:00:36.826Z,34.06
2024-02-24T14:03:06.769Z,33.82
2024-02-24T14:05:35.374Z,33.93
2024-02-24T14:08:04.813Z,33.71
2024-02-24T14:10:34.644Z,33.76
2024-02-24T14:13:02.746Z,34.08
2024-02-24T14:15:30.706Z,33.93
2024-02-24T14:18:00.172Z,34.24
2024-02-24T14:20:33.027Z,34.04
2024-02-24T14:23:01.647Z,34.10
2024-02-24T14:25:29.667Z,34.00
2024-02-24T14:27:57.651Z,33.94
2024-02-24T14:30:25.773Z,33.72
2024-02-24T14:32:53.844Z,33.73
2024-02-24T14:35:24.171Z,33.69
2024-02-24T14:37:53.655Z,33.90
2024-02-24T14:40:21.590Z,33.84
2024-02-24T14:42:49.537Z,33.57
2024-02-24T14:45:17.997Z,33.96
2024-02-24T14:47:46.301Z,34.08
2024-02-24T14:50:14.417Z,33.76
2024-02-24T14:52:42.490Z,34.00
2024-02-24T14:55:12.903Z,34.30
2024-02-24T14:57:40.945Z,34.09
2024-02-24T15:00:14.260Z,34.17
2024-02-24T15:02:52.263Z,34.16
2024-02-24T15:05:28.234Z,33.95
2024-02-24T15:07:58.132Z,33.92
2024-02-24T15:10:27.585Z,33.74
2024-02-24T15:12:55.915Z,33.96
2024-02-24T15:15:24.385Z,33.81
2024-02-24T15:17:53.896Z,34.44
2024-02-24T15:20:22.161Z,34.21
2024-02-24T15:22:52.001Z,34.28
2024-02-24T15:25:20.392Z,34.08
2024-02-24T15:27:49.746Z,34.28
2024-02-24T15:30:17.737Z,34.37
2024-02-24T15:32:45.803Z,34.20
2024-02-24T15:35:14.293Z,34.39
2024-02-24T15:37:42.408Z,34.35
2024-02-24T15:40:13.150Z,34.30
2024-02-24T15:42:41.259Z,34.74
2024-02-24T15:45:14.071Z,34.52
2024-02-24T15:47:42.112Z,34.43
2024-02-24T15:50:11.009Z,34.51
2024-02-24T15:52:39.762Z,34.94
2024-02-24T15:55:08.596Z,34.76
2024-02-24T15:57:36.549Z,35.09
2024-02-24T16:00:05.236Z,34.55
2024-02-24T16:02:36.150Z,34.75
2024-02-24T16:05:04.496Z,35.04
2024-02-24T16:07:32.771Z,34.93
2024-02-24T16:10:00.852Z,34.89
2024-02-24T16:12:29.947Z,34.87
2024-02-24T16:14:58.238Z,34.61
2024-02-24T16:17:26.387Z,34.59
2024-02-24T16:19:55.921Z,34.82
2024-02-24T16:22:24.500Z,35.11
2024-02-24T16:24:52.767Z,34.49
2024-02-24T16:27:20.720Z,34.84
2024-02-24T16:29:48.735Z,34.55
2024-02-24T16:32:16.860Z,34.94
2024-02-24T16:34:45.771Z,34.48
2024-02-24T16:37:15.287Z,34.77
2024-02-24T16:39:43.249Z,34.85
2024-02-24T16:42:11.469Z,35.02
2024-02-24T16:44:39.807Z,34.96
2024-02-24T16:47:07.744Z,35.13
2024-02-24T16:49:35.711Z,34.76
2024-02-24T16:52:03.887Z,34.67
2024-02-24T16:54:35.406Z,34.75
2024-02-24T16:57:04.845Z,34.66
2024-02-24T16:59:32.933Z,34.63
2024-02-24T17:02:01.249Z,35.04
2024-02-24T17:04:29.757Z,34.79
2024-02-24T17:06:57.856Z,34.95
2024-02-24T17:09:25.902Z,34.67
2024-02-24T17:11:57.167Z,34.74
2024-02-24T17:14:25.668Z,34.91
2024-02-24T17:16:53.626Z,35.15
2024-02-24T17:19:21.966Z,34.99
2024-02-24T17:21:50.060Z,35.18
2024-02-24T17:24:18.065Z,35.08
2024-02-24T17:26:47.467Z,34.82
2024-02-24T17:29:16.872Z,35.20
2024-02-24T17:31:45.518Z,34.80
2024-02-24T17:34:15.013Z,34.81
2024-02-24T17:36:45.753Z,34.99
2024-02-24T17:39:13.718Z,34.92
2024-02-24T17:41:41.861Z,35.09
2024-02-24T17:44:10.745Z,34.94
2024-02-24T17:46:40.809Z,34.62
2024-02-24T17:49:08.973Z,34.81
2024-02-24T17:51:37.103Z,35.18
2024-02-24T17:54:05.487Z,34.98
2024-02-24T17:56:34.640Z,35.27
2024-02-24T17:59:02.670Z,35.24
2024-02-24T18:01:30.784Z,35.16
2024-02-24T18:04:01.349Z,35.00
2024-02-24T18:06:29.758Z,35.11
2024-02-24T18:08:57.938Z,34.69
2024-02-24T18:11:26.406Z,35.34
2024-02-24T18:13:54.805Z,34.92
2024-02-24T18:16:22.856Z,35.12
2024-02-24T18:18:51.043Z,35.19
2024-02-24T18:21:20.749Z,35.25
2024-02-24T18:23:48.730Z,34.83
2024-02-24T18:26:16.872Z,34.84
2024-02-24T18:28:45.453Z,35.32
2024-02-24T18:31:13.521Z,35.02
2024-02-24T18:33:42.109Z,35.24
2024-02-24T18:36:10.254Z,35.02
2024-02-24T18:38:39.682Z,34.87
2024-02-24T18:41:07.731Z,34.96
2024-02-24T18:43:36.020Z,34.71
2024-02-24T18:46:04.016Z,35.12
2024-02-24T18:48:32.141Z,34.72
2024-02-24T18:51:00.940Z,35.11
2024-02-24T18:53:32.655Z,35.14
2024-02-24T18:56:02.567Z,35.26
2024-02-24T18:58:31.615Z,34.93
2024-02-24T19:01:01.826Z,34.89
2024-02-24T19:03:30.419Z,34.82
2024-02-24T19:06:00.128Z,34.92
2024-02-24T19:08:28.216Z,34.84
2024-02-24T19:10:56.244Z,34.94
2024-02-24T19:13:25.860Z,35.13
2024-02-24T19:15:54.499Z,34.85
2024-02-24T19:18:22.762Z,34.74
2024-02-24T19:20:51.002Z,34.89
2024-02-24T19:23:19.135Z,34.73
2024-02-24T19:25:47.215Z,34.98
2024-02-24T19:28:15.173Z,35.14
2024-02-24T19:30:44.471Z,34.66
2024-02-24T19:33:12.823Z,34.93
2024-02-24T19:35:43.771Z,35.19
2024-02-24T19:38:13.457Z,34.84
2024-02-24T19:40:43.014Z,34.93
2024-02-24T19:43:11.836Z,34.76
2024-02-24T19:45:40.117Z,34.63
2024-02-24T19:48:12.200Z,34.55
2024-02-24T19:50:40.743Z,34.98
2024-02-24T19:53:09.039Z,34.81
2024-02-24T19:55:37.017Z,34.84
2024-02-24T19:58:14.065Z,34.90
2024-02-24T20:00:49.395Z,34.71
2024-02-24T20:03:19.090Z,34.84
2024-02-24T20:05:47.185Z,34.87
2024-02-24T20:08:15.362Z,34.98
2024-02-24T20:10:43.371Z,34.61
2024-02-24T20:13:11.635Z,34.79
2024-02-24T20:15:39.575Z,34.85
2024-02-24T20:18:08.159Z,34.68
2024-02-24T20:20:37.664Z,34.83
2024-02-24T20:23:05.967Z,34.68
2024-02-24T20:25:33.963Z,34.70
2024-02-24T20:28:03.871Z,34.49
2024-02-24T20:30:31.968Z,34.66
2024-02-24T20:33:00.107Z,34.77
2024-02-24T20:35:29.083Z,34.59
2024-02-24T20:37:58.623Z,34.76
2024-02-24T20:40:27.072Z,34.88
2024-02-24T20:42:55.021Z,34.65
2024-02-24T20:45:22.945Z,34.77
2024-02-24T20:47:51.028Z,34.85
2024-02-24T20:50:19.425Z,34.67
2024-02-24T20:52:48.462Z,34.77
2024-02-24T20:55:18.678Z,34.63
2024-02-24T20:57:47.085Z,34.72
2024-02-24T21:00:16.091Z,34.56
2024-02-24T21:02:44.260Z,34.74
2024-02-24T21:05:12.748Z,34.73
2024-02-24T21:07:40.767Z,34.35
2024-02-24T21:10:09.198Z,34.38
2024-02-24T21:12:38.832Z,34.34
2024-02-24T21:15:10.347Z,34.27
2024-02-24T21:17:38.769Z,34.71
2024-02-24T21:20:07.886Z,34.40
2024-02-24T21:22:36.188Z,34.30
2024-02-24T21:25:06.329Z,34.66
2024-02-24T21:27:34.279Z,34.59
2024-02-24T21:30:03.716Z,34.36
2024-02-24T21:32:32.334Z,34.64
2024-02-24T21:35:00.604Z,34.25
2024-02-24T21:37:30.183Z,34.35
2024-02-24T21:39:58.261Z,34.55
2024-02-24T21:42:26.258Z,34.55
2024-02-24T21:44:55.528Z,34.19
2024-02-24T21:47:24.967Z,34.31
2024-02-24T21:49:52.967Z,34.21
2024-02-24T21:52:20.923Z,34.39
2024-02-24T21:54:49.554Z,34.62
2024-02-24T21:57:17.482Z,34.04
2024-02-24T21:59:45.488Z,34.18
2024-02-24T22:02:13.452Z,34.24
2024-02-24T22:04:43.118Z,34.72
2024-02-24T22:07:11.177Z,34.21
2024-02-24T22:09:39.538Z,34.41
2024-02-24T22:12:07.951Z,34.21
2024-02-24T22:14:36.394Z,34.37
2024-02-24T22:17:04.649Z,34.41
2024-02-24T22:19:35.320Z,34.10
2024-02-24T22:22:05.326Z,34.28
2024-02-24T22:24:33.324Z,34.15
2024-02-24T22:27:01.375Z,34.32
2024-02-24T22:29:29.509Z,34.23
2024-02-24T22:31:57.549Z,34.07
2024-02-24T22:34:26.049Z,34.29
2024-02-24T22:36:54.116Z,34.36
2024-02-24T22:39:23.483Z,34.42
2024-02-24T22:41:51.524Z,34.04
2024-02-24T22:44:20.687Z,34.13
2024-02-24T22:46:50.627Z,34.55
2024-02-24T22:49:18.829Z,34.50
2024-02-24T22:51:47.144Z,34.40
2024-02-24T22:54:15.410Z,34.04
2024-02-24T22:56:44.845Z,34.22
2024-02-24T22:59:13.840Z,34.45
2024-02-24T23:01:42.300Z,34.30
2024-02-24T23:04:11.651Z,34.10
2024-02-24T23:06:41.810Z,34.24
2024-02-24T23:09:11.676Z,34.53
2024-02-24T23:11:40.330Z,33.96
2024-02-24T23:14:11.613Z,34.01
2024-02-24T23:16:40.036Z,34.41
2024-02-24T23:19:08.367Z,34.02
2024-02-24T23:21:37.687Z,34.42
2024-02-24T23:24:06.323Z,34.12
2024-02-24T23:26:34.516Z,34.17
2024-02-24T23:29:04.096Z,34.01
2024-02-24T23:31:34.031Z,33.98
2024-02-24T23:34:03.242Z,34.02
2024-02-24T23:36:32.050Z,34.23
2024-02-24T23:39:00.093Z,34.33
2024-02-24T23:41:28.105Z,34.12
2024-02-24T23:43:56.349Z,34.12
2024-02-24T23:46:25.163Z,34.18
2024-02-24T23:48:54.730Z,34.24
2024-02-24T23:51:22.790Z,34.34
2024-02-24T23:53:51.684Z,34.19
2024-02-24T23:56:23.019Z,34.27
2024-02-24T23:58:51.081Z,34.32
